Adrian, Pennsylvania
Current Conditions -  °F | °C
As of 9:35 PM on Sunday 21 Dec 2014 (Local Time) from KBTP Reporting Station
Clear Clear  
Wind Chill: -8°   Ceiling: Unl
Heat Index: -4°   Visibility: 10mi
Dew Point: -7°   Wind: 6mph
Humidity: 80%   Direction: 70°ENE
Pressure: 30.23"   Gusts: NA
Location:  40.88°N, 79.54°W
Report Text: KBTP 220235Z AUTO 07005KT 10SM CLR M04/M07 A3023 RMK AO1
Loading
Personal Weather Stations






























Interactive Weather Map New forecast layout! Learn more

10-Day Weather Forecast

Advertisements
Track Severe Weather on mobile